sensor_id;sensor_type;location;lat;lon;timestamp;temperature;humidity
25945;SHT31;13742;49.306;8.636;2023-04-25T00:00:19;10.26;81.93
25945;SHT31;13742;49.306;8.636;2023-04-25T00:01:19;10.24;81.70
25945;SHT31;13742;49.306;8.636;2023-04-25T00:02:19;10.24;81.73
25945;SHT31;13742;49.306;8.636;2023-04-25T00:03:20;10.24;81.80
25945;SHT31;13742;49.306;8.636;2023-04-25T00:04:19;10.23;81.61
25945;SHT31;13742;49.306;8.636;2023-04-25T00:05:19;10.22;81.69
25945;SHT31;13742;49.306;8.636;2023-04-25T00:06:19;10.22;81.71
25945;SHT31;13742;49.306;8.636;2023-04-25T00:07:19;10.22;82.01
25945;SHT31;13742;49.306;8.636;2023-04-25T00:08:19;10.22;81.86
25945;SHT31;13742;49.306;8.636;2023-04-25T00:09:19;10.24;81.71
25945;SHT31;13742;49.306;8.636;2023-04-25T00:10:20;10.24;81.99
25945;SHT31;13742;49.306;8.636;2023-04-25T00:11:19;10.23;82.03
25945;SHT31;13742;49.306;8.636;2023-04-25T00:12:19;10.24;82.15
25945;SHT31;13742;49.306;8.636;2023-04-25T00:13:19;10.23;81.90
25945;SHT31;13742;49.306;8.636;2023-04-25T00:14:19;10.23;81.84
25945;SHT31;13742;49.306;8.636;2023-04-25T00:15:19;10.22;81.86
25945;SHT31;13742;49.306;8.636;2023-04-25T00:16:19;10.22;82.12
25945;SHT31;13742;49.306;8.636;2023-04-25T00:17:19;10.23;82.20
25945;SHT31;13742;49.306;8.636;2023-04-25T00:18:19;10.22;83.01
25945;SHT31;13742;49.306;8.636;2023-04-25T00:19:19;10.13;83.15
25945;SHT31;13742;49.306;8.636;2023-04-25T00:20:19;10.12;83.03
25945;SHT31;13742;49.306;8.636;2023-04-25T00:21:20;10.10;83.54
25945;SHT31;13742;49.306;8.636;2023-04-25T00:22:19;10.10;83.12
25945;SHT31;13742;49.306;8.636;2023-04-25T00:23:19;10.13;82.93
25945;SHT31;13742;49.306;8.636;2023-04-25T00:24:19;10.13;83.21
25945;SHT31;13742;49.306;8.636;2023-04-25T00:25:19;10.14;83.08
25945;SHT31;13742;49.306;8.636;2023-04-25T00:26:19;10.14;82.98
25945;SHT31;13742;49.306;8.636;2023-04-25T00:27:19;10.13;82.55
25945;SHT31;13742;49.306;8.636;2023-04-25T00:28:19;10.13;82.63
25945;SHT31;13742;49.306;8.636;2023-04-25T00:29:19;10.14;82.60
25945;SHT31;13742;49.306;8.636;2023-04-25T00:30:19;10.14;82.53
25945;SHT31;13742;49.306;8.636;2023-04-25T00:31:19;10.14;82.49
25945;SHT31;13742;49.306;8.636;2023-04-25T00:32:19;10.06;82.44
25945;SHT31;13742;49.306;8.636;2023-04-25T00:33:19;10.03;82.36
25945;SHT31;13742;49.306;8.636;2023-04-25T00:34:19;10.08;82.42
25945;SHT31;13742;49.306;8.636;2023-04-25T00:35:19;9.96;82.76
25945;SHT31;13742;49.306;8.636;2023-04-25T00:36:19;9.95;82.35
25945;SHT31;13742;49.306;8.636;2023-04-25T00:37:19;9.95;82.49
25945;SHT31;13742;49.306;8.636;2023-04-25T00:38:19;9.95;82.56
25945;SHT31;13742;49.306;8.636;2023-04-25T00:39:19;9.95;82.42
25945;SHT31;13742;49.306;8.636;2023-04-25T00:40:19;9.95;83.34
25945;SHT31;13742;49.306;8.636;2023-04-25T00:41:19;9.95;83.11
25945;SHT31;13742;49.306;8.636;2023-04-25T00:42:19;9.96;83.08
25945;SHT31;13742;49.306;8.636;2023-04-25T00:43:19;9.95;82.94
25945;SHT31;13742;49.306;8.636;2023-04-25T00:44:19;9.98;82.97
25945;SHT31;13742;49.306;8.636;2023-04-25T00:45:19;9.98;82.66
25945;SHT31;13742;49.306;8.636;2023-04-25T00:46:19;9.95;82.62
25945;SHT31;13742;49.306;8.636;2023-04-25T00:47:19;9.99;82.73
25945;SHT31;13742;49.306;8.636;2023-04-25T00:48:21;9.98;82.62
25945;SHT31;13742;49.306;8.636;2023-04-25T00:49:19;9.99;82.70
25945;SHT31;13742;49.306;8.636;2023-04-25T00:50:19;10.02;82.64
25945;SHT31;13742;49.306;8.636;2023-04-25T00:51:20;10.02;82.62
25945;SHT31;13742;49.306;8.636;2023-04-25T00:52:19;9.98;82.38
25945;SHT31;13742;49.306;8.636;2023-04-25T00:53:19;9.99;82.39
25945;SHT31;13742;49.306;8.636;2023-04-25T00:54:19;9.98;82.22
25945;SHT31;13742;49.306;8.636;2023-04-25T00:55:19;10.02;82.23
25945;SHT31;13742;49.306;8.636;2023-04-25T00:56:19;9.98;82.39
25945;SHT31;13742;49.306;8.636;2023-04-25T00:57:18;10.01;82.50
25945;SHT31;13742;49.306;8.636;2023-04-25T00:58:20;10.01;82.53
25945;SHT31;13742;49.306;8.636;2023-04-25T00:59:19;10.01;82.53
25945;SHT31;13742;49.306;8.636;2023-04-25T01:00:19;9.99;82.53
25945;SHT31;13742;49.306;8.636;2023-04-25T01:01:19;10.01;82.94
25945;SHT31;13742;49.306;8.636;2023-04-25T01:02:19;10.01;82.53
25945;SHT31;13742;49.306;8.636;2023-04-25T01:03:21;9.98;82.35
25945;SHT31;13742;49.306;8.636;2023-04-25T01:04:19;10.03;82.41
25945;SHT31;13742;49.306;8.636;2023-04-25T01:05:19;9.99;82.48
25945;SHT31;13742;49.306;8.636;2023-04-25T01:06:19;10.01;82.33
25945;SHT31;13742;49.306;8.636;2023-04-25T01:07:19;10.01;82.17
25945;SHT31;13742;49.306;8.636;2023-04-25T01:08:21;9.98;81.99
25945;SHT31;13742;49.306;8.636;2023-04-25T01:09:19;9.98;81.92
25945;SHT31;13742;49.306;8.636;2023-04-25T01:10:19;9.98;82.16
25945;SHT31;13742;49.306;8.636;2023-04-25T01:11:19;9.96;82.03
25945;SHT31;13742;49.306;8.636;2023-04-25T01:12:19;9.99;82.06
25945;SHT31;13742;49.306;8.636;2023-04-25T01:13:19;9.95;82.23
25945;SHT31;13742;49.306;8.636;2023-04-25T01:14:18;9.96;82.10
25945;SHT31;13742;49.306;8.636;2023-04-25T01:15:19;9.96;82.09
25945;SHT31;13742;49.306;8.636;2023-04-25T01:16:19;9.98;82.15
25945;SHT31;13742;49.306;8.636;2023-04-25T01:17:19;9.99;82.13
25945;SHT31;13742;49.306;8.636;2023-04-25T01:18:19;9.96;81.91
25945;SHT31;13742;49.306;8.636;2023-04-25T01:19:19;9.96;81.88
25945;SHT31;13742;49.306;8.636;2023-04-25T01:20:20;9.98;81.87
25945;SHT31;13742;49.306;8.636;2023-04-25T01:21:19;9.96;81.82
25945;SHT31;13742;49.306;8.636;2023-04-25T01:22:18;9.96;81.67
25945;SHT31;13742;49.306;8.636;2023-04-25T01:23:22;9.93;81.71
25945;SHT31;13742;49.306;8.636;2023-04-25T01:24:19;9.95;81.64
25945;SHT31;13742;49.306;8.636;2023-04-25T01:25:19;9.93;82.08
25945;SHT31;13742;49.306;8.636;2023-04-25T01:26:21;9.92;81.86
25945;SHT31;13742;49.306;8.636;2023-04-25T01:27:18;9.93;82.18
25945;SHT31;13742;49.306;8.636;2023-04-25T01:28:19;9.95;82.05
25945;SHT31;13742;49.306;8.636;2023-04-25T01:29:19;9.93;81.99
25945;SHT31;13742;49.306;8.636;2023-04-25T01:30:19;9.96;82.44
25945;SHT31;13742;49.306;8.636;2023-04-25T01:31:19;9.93;82.04
25945;SHT31;13742;49.306;8.636;2023-04-25T01:32:19;9.91;81.91
25945;SHT31;13742;49.306;8.636;2023-04-25T01:33:20;9.92;81.84
25945;SHT31;13742;49.306;8.636;2023-04-25T01:34:19;9.91;81.77
25945;SHT31;13742;49.306;8.636;2023-04-25T01:35:18;9.92;81.77
25945;SHT31;13742;49.306;8.636;2023-04-25T01:36:19;9.92;81.95
25945;SHT31;13742;49.306;8.636;2023-04-25T01:37:19;9.89;81.62
25945;SHT31;13742;49.306;8.636;2023-04-25T01:38:19;9.85;81.63
25945;SHT31;13742;49.306;8.636;2023-04-25T01:39:19;9.85;81.74
25945;SHT31;13742;49.306;8.636;2023-04-25T01:40:20;9.88;81.72
25945;SHT31;13742;49.306;8.636;2023-04-25T01:41:19;9.86;81.85
25945;SHT31;13742;49.306;8.636;2023-04-25T01:42:19;9.85;81.84
25945;SHT31;13742;49.306;8.636;2023-04-25T01:43:19;9.85;81.73
25945;SHT31;13742;49.306;8.636;2023-04-25T01:44:19;9.84;81.77
25945;SHT31;13742;49.306;8.636;2023-04-25T01:45:19;9.85;81.64
25945;SHT31;13742;49.306;8.636;2023-04-25T01:46:19;9.85;81.64
25945;SHT31;13742;49.306;8.636;2023-04-25T01:47:18;9.84;81.62
25945;SHT31;13742;49.306;8.636;2023-04-25T01:48:19;9.82;81.62
25945;SHT31;13742;49.306;8.636;2023-04-25T01:49:19;9.82;81.67
25945;SHT31;13742;49.306;8.636;2023-04-25T01:50:19;9.81;81.75
25945;SHT31;13742;49.306;8.636;2023-04-25T01:51:19;9.82;81.89
25945;SHT31;13742;49.306;8.636;2023-04-25T01:52:18;9.80;81.81
25945;SHT31;13742;49.306;8.636;2023-04-25T01:53:18;9.80;81.70
25945;SHT31;13742;49.306;8.636;2023-04-25T01:54:18;9.78;81.79
25945;SHT31;13742;49.306;8.636;2023-04-25T01:55:19;9.78;82.10
25945;SHT31;13742;49.306;8.636;2023-04-25T01:56:19;9.76;82.26
25945;SHT31;13742;49.306;8.636;2023-04-25T01:57:18;9.75;82.17
25945;SHT31;13742;49.306;8.636;2023-04-25T01:58:18;9.80;82.31
25945;SHT31;13742;49.306;8.636;2023-04-25T01:59:19;9.74;82.18
25945;SHT31;13742;49.306;8.636;2023-04-25T02:00:18;9.75;82.94
25945;SHT31;13742;49.306;8.636;2023-04-25T02:01:18;9.71;82.40
25945;SHT31;13742;49.306;8.636;2023-04-25T02:02:19;9.68;82.97
25945;SHT31;13742;49.306;8.636;2023-04-25T02:03:18;9.65;82.62
25945;SHT31;13742;49.306;8.636;2023-04-25T02:04:18;9.68;82.82
25945;SHT31;13742;49.306;8.636;2023-04-25T02:05:19;9.68;82.85
25945;SHT31;13742;49.306;8.636;2023-04-25T02:06:18;9.69;83.21
25945;SHT31;13742;49.306;8.636;2023-04-25T02:07:18;9.69;83.18
25945;SHT31;13742;49.306;8.636;2023-04-25T02:08:18;9.68;83.47
25945;SHT31;13742;49.306;8.636;2023-04-25T02:09:18;9.71;83.28
25945;SHT31;13742;49.306;8.636;2023-04-25T02:10:18;9.68;83.06
25945;SHT31;13742;49.306;8.636;2023-04-25T02:11:19;9.65;83.10
25945;SHT31;13742;49.306;8.636;2023-04-25T02:12:18;9.66;82.96
25945;SHT31;13742;49.306;8.636;2023-04-25T02:13:18;9.64;83.23
25945;SHT31;13742;49.306;8.636;2023-04-25T02:14:18;9.65;83.90
25945;SHT31;13742;49.306;8.636;2023-04-25T02:15:19;9.62;83.07
25945;SHT31;13742;49.306;8.636;2023-04-25T02:16:18;9.64;83.00
25945;SHT31;13742;49.306;8.636;2023-04-25T02:17:18;9.62;83.38
25945;SHT31;13742;49.306;8.636;2023-04-25T02:18:20;9.62;83.61
25945;SHT31;13742;49.306;8.636;2023-04-25T02:19:18;9.59;83.62
25945;SHT31;13742;49.306;8.636;2023-04-25T02:20:21;9.61;83.60
25945;SHT31;13742;49.306;8.636;2023-04-25T02:21:19;9.57;83.66
25945;SHT31;13742;49.306;8.636;2023-04-25T02:22:18;9.58;83.89
25945;SHT31;13742;49.306;8.636;2023-04-25T02:23:19;9.55;83.69
25945;SHT31;13742;49.306;8.636;2023-04-25T02:24:18;9.55;83.54
25945;SHT31;13742;49.306;8.636;2023-04-25T02:25:20;9.55;83.79
25945;SHT31;13742;49.306;8.636;2023-04-25T02:26:19;9.54;83.77
25945;SHT31;13742;49.306;8.636;2023-04-25T02:27:18;9.55;83.85
25945;SHT31;13742;49.306;8.636;2023-04-25T02:28:18;9.51;83.92
25945;SHT31;13742;49.306;8.636;2023-04-25T02:29:18;9.50;83.99
25945;SHT31;13742;49.306;8.636;2023-04-25T02:30:18;9.50;84.32
25945;SHT31;13742;49.306;8.636;2023-04-25T02:31:18;9.48;83.87
25945;SHT31;13742;49.306;8.636;2023-04-25T02:32:18;9.47;84.03
25945;SHT31;13742;49.306;8.636;2023-04-25T02:33:18;9.43;84.09
25945;SHT31;13742;49.306;8.636;2023-04-25T02:34:18;9.45;84.01
25945;SHT31;13742;49.306;8.636;2023-04-25T02:35:18;9.47;84.20
25945;SHT31;13742;49.306;8.636;2023-04-25T02:36:18;9.45;84.05
25945;SHT31;13742;49.306;8.636;2023-04-25T02:37:18;9.48;84.10
25945;SHT31;13742;49.306;8.636;2023-04-25T02:38:18;9.44;84.40
25945;SHT31;13742;49.306;8.636;2023-04-25T02:39:18;9.45;84.38
25945;SHT31;13742;49.306;8.636;2023-04-25T02:40:18;9.44;84.31
25945;SHT31;13742;49.306;8.636;2023-04-25T02:41:18;9.44;84.39
25945;SHT31;13742;49.306;8.636;2023-04-25T02:42:18;9.43;84.85
25945;SHT31;13742;49.306;8.636;2023-04-25T02:43:18;9.47;85.57
25945;SHT31;13742;49.306;8.636;2023-04-25T02:44:18;9.45;85.46
25945;SHT31;13742;49.306;8.636;2023-04-25T02:45:18;9.44;85.30
25945;SHT31;13742;49.306;8.636;2023-04-25T02:46:18;9.43;84.65
25945;SHT31;13742;49.306;8.636;2023-04-25T02:47:18;9.43;84.87
25945;SHT31;13742;49.306;8.636;2023-04-25T02:48:18;9.38;85.02
25945;SHT31;13742;49.306;8.636;2023-04-25T02:49:18;9.38;84.63
25945;SHT31;13742;49.306;8.636;2023-04-25T02:50:18;9.33;84.78
25945;SHT31;13742;49.306;8.636;2023-04-25T02:51:18;9.27;84.90
25945;SHT31;13742;49.306;8.636;2023-04-25T02:52:18;9.24;85.51
25945;SHT31;13742;49.306;8.636;2023-04-25T02:53:18;9.22;85.12
25945;SHT31;13742;49.306;8.636;2023-04-25T02:54:18;9.23;85.55
25945;SHT31;13742;49.306;8.636;2023-04-25T02:55:18;9.20;85.19
25945;SHT31;13742;49.306;8.636;2023-04-25T02:56:18;9.22;85.23
25945;SHT31;13742;49.306;8.636;2023-04-25T02:57:18;9.23;85.48
25945;SHT31;13742;49.306;8.636;2023-04-25T02:58:18;9.20;85.57
25945;SHT31;13742;49.306;8.636;2023-04-25T02:59:18;9.19;85.88
25945;SHT31;13742;49.306;8.636;2023-04-25T03:00:18;9.16;85.56
25945;SHT31;13742;49.306;8.636;2023-04-25T03:01:18;9.12;86.19
25945;SHT31;13742;49.306;8.636;2023-04-25T03:02:18;9.14;86.40
25945;SHT31;13742;49.306;8.636;2023-04-25T03:03:21;9.13;85.94
25945;SHT31;13742;49.306;8.636;2023-04-25T03:04:19;9.13;86.45
25945;SHT31;13742;49.306;8.636;2023-04-25T03:05:19;9.09;86.67
25945;SHT31;13742;49.306;8.636;2023-04-25T03:06:18;9.04;86.96
25945;SHT31;13742;49.306;8.636;2023-04-25T03:07:18;9.07;86.90
25945;SHT31;13742;49.306;8.636;2023-04-25T03:08:18;9.07;86.44
25945;SHT31;13742;49.306;8.636;2023-04-25T03:09:19;9.07;87.59
25945;SHT31;13742;49.306;8.636;2023-04-25T03:10:18;9.09;86.87
25945;SHT31;13742;49.306;8.636;2023-04-25T03:11:20;9.10;87.65
25945;SHT31;13742;49.306;8.636;2023-04-25T03:12:19;9.06;86.93
25945;SHT31;13742;49.306;8.636;2023-04-25T03:13:18;9.10;87.40
25945;SHT31;13742;49.306;8.636;2023-04-25T03:14:18;9.14;87.30
25945;SHT31;13742;49.306;8.636;2023-04-25T03:15:18;9.14;87.35
25945;SHT31;13742;49.306;8.636;2023-04-25T03:16:18;9.14;87.50
25945;SHT31;13742;49.306;8.636;2023-04-25T03:17:18;9.14;87.84
25945;SHT31;13742;49.306;8.636;2023-04-25T03:18:18;9.12;87.31
25945;SHT31;13742;49.306;8.636;2023-04-25T03:19:18;9.13;86.72
25945;SHT31;13742;49.306;8.636;2023-04-25T03:20:18;9.09;86.74
25945;SHT31;13742;49.306;8.636;2023-04-25T03:21:18;9.04;86.89
25945;SHT31;13742;49.306;8.636;2023-04-25T03:22:18;9.07;86.82
25945;SHT31;13742;49.306;8.636;2023-04-25T03:23:18;9.07;86.72
25945;SHT31;13742;49.306;8.636;2023-04-25T03:24:18;9.10;86.75
25945;SHT31;13742;49.306;8.636;2023-04-25T03:25:18;9.10;86.99
25945;SHT31;13742;49.306;8.636;2023-04-25T03:26:18;9.09;86.59
25945;SHT31;13742;49.306;8.636;2023-04-25T03:27:18;9.10;86.54
25945;SHT31;13742;49.306;8.636;2023-04-25T03:28:18;9.13;86.53
25945;SHT31;13742;49.306;8.636;2023-04-25T03:29:18;9.17;87.54
25945;SHT31;13742;49.306;8.636;2023-04-25T03:30:18;9.16;86.86
25945;SHT31;13742;49.306;8.636;2023-04-25T03:31:19;9.16;87.36
25945;SHT31;13742;49.306;8.636;2023-04-25T03:32:18;9.23;87.39
25945;SHT31;13742;49.306;8.636;2023-04-25T03:33:18;9.20;86.91
25945;SHT31;13742;49.306;8.636;2023-04-25T03:34:18;9.23;86.75
25945;SHT31;13742;49.306;8.636;2023-04-25T03:35:18;9.23;86.54
25945;SHT31;13742;49.306;8.636;2023-04-25T03:36:18;9.24;86.88
25945;SHT31;13742;49.306;8.636;2023-04-25T03:37:18;9.26;87.43
25945;SHT31;13742;49.306;8.636;2023-04-25T03:38:19;9.27;87.47
25945;SHT31;13742;49.306;8.636;2023-04-25T03:39:18;9.29;88.20
25945;SHT31;13742;49.306;8.636;2023-04-25T03:40:18;9.29;87.26
25945;SHT31;13742;49.306;8.636;2023-04-25T03:41:18;9.26;86.80
25945;SHT31;13742;49.306;8.636;2023-04-25T03:42:19;9.27;87.22
25945;SHT31;13742;49.306;8.636;2023-04-25T03:43:18;9.29;86.70
25945;SHT31;13742;49.306;8.636;2023-04-25T03:44:18;9.30;87.15
25945;SHT31;13742;49.306;8.636;2023-04-25T03:45:18;9.27;87.60
25945;SHT31;13742;49.306;8.636;2023-04-25T03:46:18;9.27;86.94
25945;SHT31;13742;49.306;8.636;2023-04-25T03:47:18;9.30;87.17
25945;SHT31;13742;49.306;8.636;2023-04-25T03:48:21;9.27;86.74
25945;SHT31;13742;49.306;8.636;2023-04-25T03:49:18;9.29;86.76
25945;SHT31;13742;49.306;8.636;2023-04-25T03:50:18;9.31;86.88
25945;SHT31;13742;49.306;8.636;2023-04-25T03:51:18;9.31;86.50
25945;SHT31;13742;49.306;8.636;2023-04-25T03:52:18;9.30;86.58
25945;SHT31;13742;49.306;8.636;2023-04-25T03:53:18;9.30;86.47
25945;SHT31;13742;49.306;8.636;2023-04-25T03:54:18;9.33;87.33
25945;SHT31;13742;49.306;8.636;2023-04-25T03:55:18;9.33;87.00
25945;SHT31;13742;49.306;8.636;2023-04-25T03:56:18;9.34;86.90
25945;SHT31;13742;49.306;8.636;2023-04-25T03:57:18;9.33;87.32
25945;SHT31;13742;49.306;8.636;2023-04-25T03:58:18;9.34;86.99
25945;SHT31;13742;49.306;8.636;2023-04-25T03:59:18;9.35;86.96
25945;SHT31;13742;49.306;8.636;2023-04-25T04:00:18;9.34;86.96
25945;SHT31;13742;49.306;8.636;2023-04-25T04:01:18;9.30;86.95
25945;SHT31;13742;49.306;8.636;2023-04-25T04:02:18;9.29;86.72
25945;SHT31;13742;49.306;8.636;2023-04-25T04:03:18;9.30;86.73
25945;SHT31;13742;49.306;8.636;2023-04-25T04:04:18;9.27;86.84
25945;SHT31;13742;49.306;8.636;2023-04-25T04:05:18;9.26;86.72
25945;SHT31;13742;49.306;8.636;2023-04-25T04:06:20;9.26;86.57
25945;SHT31;13742;49.306;8.636;2023-04-25T04:07:18;9.24;86.76
25945;SHT31;13742;49.306;8.636;2023-04-25T04:08:18;9.24;86.64
25945;SHT31;13742;49.306;8.636;2023-04-25T04:09:19;9.20;86.32
25945;SHT31;13742;49.306;8.636;2023-04-25T04:10:18;9.22;86.55
25945;SHT31;13742;49.306;8.636;2023-04-25T04:11:18;9.20;86.53
25945;SHT31;13742;49.306;8.636;2023-04-25T04:12:18;9.22;86.49
25945;SHT31;13742;49.306;8.636;2023-04-25T04:13:18;9.20;86.75
25945;SHT31;13742;49.306;8.636;2023-04-25T04:14:18;9.22;86.71
25945;SHT31;13742;49.306;8.636;2023-04-25T04:15:18;9.23;86.82
25945;SHT31;13742;49.306;8.636;2023-04-25T04:16:18;9.24;86.84
25945;SHT31;13742;49.306;8.636;2023-04-25T04:17:18;9.23;86.68
25945;SHT31;13742;49.306;8.636;2023-04-25T04:18:18;9.22;86.97
25945;SHT31;13742;49.306;8.636;2023-04-25T04:19:18;9.23;86.46
25945;SHT31;13742;49.306;8.636;2023-04-25T04:20:18;9.24;86.87
25945;SHT31;13742;49.306;8.636;2023-04-25T04:21:18;9.23;87.70
25945;SHT31;13742;49.306;8.636;2023-04-25T04:22:18;9.24;87.21
25945;SHT31;13742;49.306;8.636;2023-04-25T04:23:19;9.24;86.73
25945;SHT31;13742;49.306;8.636;2023-04-25T04:24:18;9.22;86.60
25945;SHT31;13742;49.306;8.636;2023-04-25T04:25:19;9.24;86.76
25945;SHT31;13742;49.306;8.636;2023-04-25T04:26:18;9.26;87.11
25945;SHT31;13742;49.306;8.636;2023-04-25T04:27:19;9.23;86.76
25945;SHT31;13742;49.306;8.636;2023-04-25T04:28:18;9.26;87.65
25945;SHT31;13742;49.306;8.636;2023-04-25T04:29:21;9.23;87.30
25945;SHT31;13742;49.306;8.636;2023-04-25T04:30:18;9.27;87.21
25945;SHT31;13742;49.306;8.636;2023-04-25T04:31:23;9.29;87.20
25945;SHT31;13742;49.306;8.636;2023-04-25T04:32:18;9.27;86.88
25945;SHT31;13742;49.306;8.636;2023-04-25T04:33:19;9.24;86.73
25945;SHT31;13742;49.306;8.636;2023-04-25T04:34:18;9.30;87.55
25945;SHT31;13742;49.306;8.636;2023-04-25T04:35:20;9.26;88.44
25945;SHT31;13742;49.306;8.636;2023-04-25T04:36:23;9.27;87.30
25945;SHT31;13742;49.306;8.636;2023-04-25T04:37:18;9.26;87.41
25945;SHT31;13742;49.306;8.636;2023-04-25T04:38:19;9.26;87.32
25945;SHT31;13742;49.306;8.636;2023-04-25T04:39:18;9.26;87.19
25945;SHT31;13742;49.306;8.636;2023-04-25T04:40:19;9.24;86.95
25945;SHT31;13742;49.306;8.636;2023-04-25T04:41:19;9.23;86.87
25945;SHT31;13742;49.306;8.636;2023-04-25T04:42:18;9.23;86.84
25945;SHT31;13742;49.306;8.636;2023-04-25T04:43:18;9.22;87.14
25945;SHT31;13742;49.306;8.636;2023-04-25T04:44:18;9.23;86.92
25945;SHT31;13742;49.306;8.636;2023-04-25T04:45:18;9.22;86.84
25945;SHT31;13742;49.306;8.636;2023-04-25T04:46:18;9.22;86.72
25945;SHT31;13742;49.306;8.636;2023-04-25T04:47:20;9.23;87.07
25945;SHT31;13742;49.306;8.636;2023-04-25T04:48:18;9.20;87.01
25945;SHT31;13742;49.306;8.636;2023-04-25T04:49:21;9.22;86.97
25945;SHT31;13742;49.306;8.636;2023-04-25T04:50:19;9.20;86.94
25945;SHT31;13742;49.306;8.636;2023-04-25T04:51:19;9.22;87.01
25945;SHT31;13742;49.306;8.636;2023-04-25T04:52:18;9.23;87.21
25945;SHT31;13742;49.306;8.636;2023-04-25T04:53:18;9.26;87.10
25945;SHT31;13742;49.306;8.636;2023-04-25T04:54:18;9.26;87.46
25945;SHT31;13742;49.306;8.636;2023-04-25T04:55:18;9.27;87.63
25945;SHT31;13742;49.306;8.636;2023-04-25T04:56:20;9.27;87.07
25945;SHT31;13742;49.306;8.636;2023-04-25T04:57:18;9.26;86.83
25945;SHT31;13742;49.306;8.636;2023-04-25T04:58:18;9.27;86.85
25945;SHT31;13742;49.306;8.636;2023-04-25T04:59:18;9.24;87.03
25945;SHT31;13742;49.306;8.636;2023-04-25T05:00:18;9.23;86.90
25945;SHT31;13742;49.306;8.636;2023-04-25T05:01:18;9.26;86.61
25945;SHT31;13742;49.306;8.636;2023-04-25T05:02:18;9.23;86.89
25945;SHT31;13742;49.306;8.636;2023-04-25T05:03:18;9.23;86.59
25945;SHT31;13742;49.306;8.636;2023-04-25T05:04:18;9.26;86.42
25945;SHT31;13742;49.306;8.636;2023-04-25T05:05:18;9.24;86.50
25945;SHT31;13742;49.306;8.636;2023-04-25T05:06:19;9.24;86.76
25945;SHT31;13742;49.306;8.636;2023-04-25T05:07:19;9.27;86.73
25945;SHT31;13742;49.306;8.636;2023-04-25T05:08:18;9.26;86.78
25945;SHT31;13742;49.306;8.636;2023-04-25T05:09:19;9.31;87.50
25945;SHT31;13742;49.306;8.636;2023-04-25T05:10:19;9.30;86.86
25945;SHT31;13742;49.306;8.636;2023-04-25T05:11:19;9.31;86.74
25945;SHT31;13742;49.306;8.636;2023-04-25T05:12:18;9.33;87.53
25945;SHT31;13742;49.306;8.636;2023-04-25T05:13:18;9.31;87.35
25945;SHT31;13742;49.306;8.636;2023-04-25T05:14:18;9.33;86.90
25945;SHT31;13742;49.306;8.636;2023-04-25T05:15:18;9.33;86.90
25945;SHT31;13742;49.306;8.636;2023-04-25T05:16:19;9.35;87.01
25945;SHT31;13742;49.306;8.636;2023-04-25T05:17:18;9.34;87.82
25945;SHT31;13742;49.306;8.636;2023-04-25T05:18:18;9.37;87.78
25945;SHT31;13742;49.306;8.636;2023-04-25T05:19:18;9.33;87.27
25945;SHT31;13742;49.306;8.636;2023-04-25T05:20:19;9.33;86.84
25945;SHT31;13742;49.306;8.636;2023-04-25T05:21:18;9.31;86.93
25945;SHT31;13742;49.306;8.636;2023-04-25T05:22:18;9.31;87.09
25945;SHT31;13742;49.306;8.636;2023-04-25T05:23:18;9.33;86.78
25945;SHT31;13742;49.306;8.636;2023-04-25T05:24:18;9.33;86.43
25945;SHT31;13742;49.306;8.636;2023-04-25T05:25:18;9.31;86.28
25945;SHT31;13742;49.306;8.636;2023-04-25T05:26:18;9.31;86.81
25945;SHT31;13742;49.306;8.636;2023-04-25T05:27:18;9.31;86.95
25945;SHT31;13742;49.306;8.636;2023-04-25T05:28:18;9.34;87.60
25945;SHT31;13742;49.306;8.636;2023-04-25T05:29:18;9.34;87.25
25945;SHT31;13742;49.306;8.636;2023-04-25T05:30:18;9.30;87.63
25945;SHT31;13742;49.306;8.636;2023-04-25T05:31:18;9.34;87.86
25945;SHT31;13742;49.306;8.636;2023-04-25T05:32:18;9.35;87.67
25945;SHT31;13742;49.306;8.636;2023-04-25T05:33:19;9.34;87.73
25945;SHT31;13742;49.306;8.636;2023-04-25T05:34:18;9.33;87.48
25945;SHT31;13742;49.306;8.636;2023-04-25T05:35:18;9.35;87.28
25945;SHT31;13742;49.306;8.636;2023-04-25T05:36:19;9.37;87.28
25945;SHT31;13742;49.306;8.636;2023-04-25T05:37:18;9.35;87.42
25945;SHT31;13742;49.306;8.636;2023-04-25T05:38:18;9.38;87.49
25945;SHT31;13742;49.306;8.636;2023-04-25T05:39:18;9.37;87.53
25945;SHT31;13742;49.306;8.636;2023-04-25T05:40:18;9.33;87.90
25945;SHT31;13742;49.306;8.636;2023-04-25T05:41:18;9.38;87.44
25945;SHT31;13742;49.306;8.636;2023-04-25T05:42:18;9.38;87.18
25945;SHT31;13742;49.306;8.636;2023-04-25T05:43:18;9.38;86.92
25945;SHT31;13742;49.306;8.636;2023-04-25T05:44:18;9.41;86.73
25945;SHT31;13742;49.306;8.636;2023-04-25T05:45:18;9.38;86.59
25945;SHT31;13742;49.306;8.636;2023-04-25T05:46:18;9.38;87.37
25945;SHT31;13742;49.306;8.636;2023-04-25T05:47:18;9.40;87.14
25945;SHT31;13742;49.306;8.636;2023-04-25T05:48:18;9.40;86.80
25945;SHT31;13742;49.306;8.636;2023-04-25T05:49:19;9.41;86.63
25945;SHT31;13742;49.306;8.636;2023-04-25T05:50:18;9.41;87.38
25945;SHT31;13742;49.306;8.636;2023-04-25T05:51:18;9.43;87.28
25945;SHT31;13742;49.306;8.636;2023-04-25T05:52:18;9.43;87.25
25945;SHT31;13742;49.306;8.636;2023-04-25T05:53:19;9.43;87.52
25945;SHT31;13742;49.306;8.636;2023-04-25T05:54:18;9.37;87.82
25945;SHT31;13742;49.306;8.636;2023-04-25T05:55:18;9.34;88.47
25945;SHT31;13742;49.306;8.636;2023-04-25T05:56:18;9.34;88.60
25945;SHT31;13742;49.306;8.636;2023-04-25T05:57:24;9.27;88.13
25945;SHT31;13742;49.306;8.636;2023-04-25T05:58:18;9.23;88.11
25945;SHT31;13742;49.306;8.636;2023-04-25T05:59:18;9.24;88.40
25945;SHT31;13742;49.306;8.636;2023-04-25T06:00:18;9.24;87.82
25945;SHT31;13742;49.306;8.636;2023-04-25T06:01:18;9.29;87.68
25945;SHT31;13742;49.306;8.636;2023-04-25T06:02:19;9.31;87.43
25945;SHT31;13742;49.306;8.636;2023-04-25T06:03:18;9.31;87.71
25945;SHT31;13742;49.306;8.636;2023-04-25T06:04:18;9.30;87.99
25945;SHT31;13742;49.306;8.636;2023-04-25T06:05:18;9.33;87.40
25945;SHT31;13742;49.306;8.636;2023-04-25T06:06:18;9.34;87.76
25945;SHT31;13742;49.306;8.636;2023-04-25T06:07:19;9.33;88.09
25945;SHT31;13742;49.306;8.636;2023-04-25T06:08:19;9.31;88.59
25945;SHT31;13742;49.306;8.636;2023-04-25T06:09:18;9.34;88.16
25945;SHT31;13742;49.306;8.636;2023-04-25T06:10:18;9.38;87.96
25945;SHT31;13742;49.306;8.636;2023-04-25T06:11:18;9.38;88.44
25945;SHT31;13742;49.306;8.636;2023-04-25T06:12:18;9.37;88.52
25945;SHT31;13742;49.306;8.636;2023-04-25T06:13:18;9.37;88.84
25945;SHT31;13742;49.306;8.636;2023-04-25T06:14:18;9.30;88.80
25945;SHT31;13742;49.306;8.636;2023-04-25T06:15:18;9.23;88.78
25945;SHT31;13742;49.306;8.636;2023-04-25T06:16:18;9.20;88.77
25945;SHT31;13742;49.306;8.636;2023-04-25T06:17:18;9.17;88.65
25945;SHT31;13742;49.306;8.636;2023-04-25T06:18:18;9.19;88.82
25945;SHT31;13742;49.306;8.636;2023-04-25T06:19:18;9.22;88.37
25945;SHT31;13742;49.306;8.636;2023-04-25T06:20:23;9.24;88.76
25945;SHT31;13742;49.306;8.636;2023-04-25T06:21:18;9.24;88.69
25945;SHT31;13742;49.306;8.636;2023-04-25T06:22:18;9.16;89.09
25945;SHT31;13742;49.306;8.636;2023-04-25T06:23:18;9.19;88.80
25945;SHT31;13742;49.306;8.636;2023-04-25T06:24:18;9.23;88.55